createdAt,value
2023-02-02T00:00:03.430Z,1021.90
2023-02-02T00:01:04.316Z,1021.88
2023-02-02T00:02:05.199Z,1021.92
2023-02-02T00:03:06.111Z,1021.89
2023-02-02T00:04:07.009Z,1021.92
2023-02-02T00:05:07.864Z,1021.92
2023-02-02T00:06:08.754Z,1021.92
2023-02-02T00:07:09.647Z,1021.88
2023-02-02T00:08:10.517Z,1021.99
2023-02-02T00:09:11.406Z,1021.96
2023-02-02T00:10:12.285Z,1021.98
2023-02-02T00:11:13.178Z,1022.04
2023-02-02T00:12:14.051Z,1021.99
2023-02-02T00:13:14.947Z,1022.00
2023-02-02T00:14:15.822Z,1022.08
2023-02-02T00:15:16.703Z,1022.08
2023-02-02T00:16:17.615Z,1022.11
2023-02-02T00:17:18.458Z,1022.07
2023-02-02T00:18:19.339Z,1022.08
2023-02-02T00:19:20.252Z,1022.09
2023-02-02T00:20:21.117Z,1022.09
2023-02-02T00:21:21.999Z,1022.09
2023-02-02T00:22:22.891Z,1022.15
2023-02-02T00:23:23.774Z,1022.14
2023-02-02T00:24:24.668Z,1022.15
2023-02-02T00:25:25.817Z,1022.13
2023-02-02T00:26:26.302Z,1022.15
2023-02-02T00:27:27.173Z,1022.13
2023-02-02T00:28:28.056Z,1022.18
2023-02-02T00:29:28.943Z,1022.16
2023-02-02T00:30:29.848Z,1022.16
2023-02-02T00:31:30.715Z,1022.20
2023-02-02T00:32:31.578Z,1022.19
2023-02-02T00:33:32.457Z,1022.13
2023-02-02T00:34:33.359Z,1022.12
2023-02-02T00:35:34.236Z,1022.16
2023-02-02T00:36:35.111Z,1022.15
2023-02-02T00:37:35.994Z,1022.14
2023-02-02T00:38:36.870Z,1022.19
2023-02-02T00:39:37.756Z,1022.21
2023-02-02T00:40:38.645Z,1022.16
2023-02-02T00:41:39.523Z,1022.13
2023-02-02T00:42:40.406Z,1022.17
2023-02-02T00:43:41.311Z,1022.13
2023-02-02T00:44:42.173Z,1022.15
2023-02-02T00:45:43.087Z,1022.15
2023-02-02T00:46:43.936Z,1022.16
2023-02-02T00:47:44.824Z,1022.09
2023-02-02T00:48:45.693Z,1022.08
2023-02-02T00:49:46.593Z,1022.14
2023-02-02T00:50:47.457Z,1022.13
2023-02-02T00:51:48.337Z,1022.08
2023-02-02T00:52:49.220Z,1022.10
2023-02-02T00:53:50.096Z,1022.13
2023-02-02T00:54:50.986Z,1022.15
2023-02-02T00:55:51.871Z,1022.07
2023-02-02T00:56:52.754Z,1022.07
2023-02-02T00:57:53.635Z,1022.19
2023-02-02T00:58:54.526Z,1022.19
2023-02-02T00:59:55.399Z,1022.09
2023-02-02T01:00:56.295Z,1022.11
2023-02-02T01:01:57.225Z,1022.13
2023-02-02T01:02:58.089Z,1022.12
2023-02-02T01:03:58.984Z,1022.17
2023-02-02T01:04:59.862Z,1022.13
2023-02-02T01:06:00.743Z,1022.19
2023-02-02T01:07:01.628Z,1022.15
2023-02-02T01:08:02.520Z,1022.08
2023-02-02T01:09:03.387Z,1022.09
2023-02-02T01:10:04.282Z,1022.10
2023-02-02T01:11:05.161Z,1022.11
2023-02-02T01:12:06.046Z,1022.08
2023-02-02T01:13:06.938Z,1022.14
2023-02-02T01:14:07.829Z,1022.09
2023-02-02T01:15:08.699Z,1022.18
2023-02-02T01:16:09.667Z,1022.15
2023-02-02T01:17:10.501Z,1022.10
2023-02-02T01:18:11.382Z,1022.11
2023-02-02T01:19:12.251Z,1022.09
2023-02-02T01:20:13.147Z,1022.04
2023-02-02T01:21:14.043Z,1022.00
2023-02-02T01:22:14.927Z,1022.00
2023-02-02T01:23:15.808Z,1022.03
2023-02-02T01:24:16.686Z,1022.04
2023-02-02T01:25:17.583Z,1022.07
2023-02-02T01:26:18.515Z,1022.04
2023-02-02T01:27:19.350Z,1022.08
2023-02-02T01:28:20.227Z,1022.03
2023-02-02T01:29:21.130Z,1022.04
2023-02-02T01:30:22.008Z,1022.03
2023-02-02T01:31:22.936Z,1022.07
2023-02-02T01:32:23.782Z,1022.06
2023-02-02T01:33:24.667Z,1021.96
2023-02-02T01:34:25.550Z,1022.00
2023-02-02T01:35:26.741Z,1021.98
2023-02-02T01:36:27.205Z,1022.05
2023-02-02T01:37:28.076Z,1021.98
2023-02-02T01:38:28.959Z,1021.97
2023-02-02T01:39:29.843Z,1021.99
2023-02-02T01:40:30.736Z,1021.98
2023-02-02T01:41:31.618Z,1022.02
2023-02-02T01:42:32.505Z,1022.03
2023-02-02T01:43:33.389Z,1022.04
2023-02-02T01:44:34.286Z,1021.98
2023-02-02T01:45:35.179Z,1022.04
2023-02-02T01:46:36.074Z,1022.00
2023-02-02T01:47:36.919Z,1021.99
2023-02-02T01:48:37.804Z,1021.92
2023-02-02T01:49:38.686Z,1021.98
2023-02-02T01:50:39.582Z,1022.02
2023-02-02T01:51:40.454Z,1021.91
2023-02-02T01:52:41.338Z,1021.89
2023-02-02T01:53:42.223Z,1021.99
2023-02-02T01:54:43.104Z,1021.90
2023-02-02T01:55:43.984Z,1021.83
2023-02-02T01:56:44.873Z,1021.81
2023-02-02T01:57:45.754Z,1021.88
2023-02-02T01:58:46.632Z,1021.90
2023-02-02T01:59:47.525Z,1021.85
2023-02-02T02:00:48.402Z,1021.87
2023-02-02T02:01:49.277Z,1021.93
2023-02-02T02:02:50.162Z,1021.94
2023-02-02T02:03:51.058Z,1022.01
2023-02-02T02:04:51.925Z,1021.91
2023-02-02T02:05:52.837Z,1021.97
2023-02-02T02:06:53.816Z,1021.82
2023-02-02T02:07:54.216Z,1021.91
2023-02-02T02:08:55.102Z,1021.91
2023-02-02T02:09:55.981Z,1021.93
2023-02-02T02:10:56.873Z,1021.94
2023-02-02T02:11:57.760Z,1021.92
2023-02-02T02:12:58.642Z,1021.93
2023-02-02T02:13:59.536Z,1021.89
2023-02-02T02:15:00.439Z,1021.85
2023-02-02T02:16:01.315Z,1021.79
2023-02-02T02:17:02.192Z,1021.85
2023-02-02T02:18:03.083Z,1021.87
2023-02-02T02:19:03.959Z,1021.78
2023-02-02T02:20:04.840Z,1021.80
2023-02-02T02:21:05.746Z,1021.72
2023-02-02T02:22:06.621Z,1021.77
2023-02-02T02:23:07.495Z,1021.71
2023-02-02T02:24:08.370Z,1021.76
2023-02-02T02:25:09.251Z,1021.73
2023-02-02T02:26:10.148Z,1021.73
2023-02-02T02:27:11.029Z,1021.71
2023-02-02T02:28:11.921Z,1021.74
2023-02-02T02:29:12.801Z,1021.75
2023-02-02T02:30:13.697Z,1021.70
2023-02-02T02:31:14.676Z,1021.73
2023-02-02T02:32:15.516Z,1021.68
2023-02-02T02:33:16.393Z,1021.64
2023-02-02T02:34:17.281Z,1021.67
2023-02-02T02:35:18.161Z,1021.72
2023-02-02T02:36:19.040Z,1021.70
2023-02-02T02:37:19.925Z,1021.68
2023-02-02T02:38:20.796Z,1021.65
2023-02-02T02:39:21.677Z,1021.60
2023-02-02T02:40:22.558Z,1021.54
2023-02-02T02:41:23.450Z,1021.54
2023-02-02T02:42:24.325Z,1021.56
2023-02-02T02:43:25.211Z,1021.58
2023-02-02T02:44:26.090Z,1021.62
2023-02-02T02:45:27.213Z,1021.59
2023-02-02T02:46:27.611Z,1021.55
2023-02-02T02:47:28.436Z,1021.58
2023-02-02T02:48:29.320Z,1021.57
2023-02-02T02:49:30.202Z,1021.55
2023-02-02T02:50:31.086Z,1021.49
2023-02-02T02:51:31.979Z,1021.54
2023-02-02T02:52:32.863Z,1021.59
2023-02-02T02:53:33.747Z,1021.63
2023-02-02T02:54:34.639Z,1021.60
2023-02-02T02:55:35.511Z,1021.61
2023-02-02T02:56:36.402Z,1021.69
2023-02-02T02:57:37.285Z,1021.66
2023-02-02T02:58:38.176Z,1021.57
2023-02-02T02:59:39.051Z,1021.59
2023-02-02T03:00:39.954Z,1021.57
2023-02-02T03:01:40.917Z,1021.58
2023-02-02T03:02:41.818Z,1021.60
2023-02-02T03:03:42.665Z,1021.61
2023-02-02T03:04:43.550Z,1021.66
2023-02-02T03:05:44.431Z,1021.72
2023-02-02T03:06:45.329Z,1021.70
2023-02-02T03:07:46.207Z,1021.58
2023-02-02T03:08:47.096Z,1021.58
2023-02-02T03:09:47.960Z,1021.59
2023-02-02T03:10:48.840Z,1021.53
2023-02-02T03:11:49.732Z,1021.59
2023-02-02T03:12:50.609Z,1021.59
2023-02-02T03:13:51.498Z,1021.45
2023-02-02T03:14:52.377Z,1021.51
2023-02-02T03:15:53.304Z,1021.54
2023-02-02T03:16:54.149Z,1021.43
2023-02-02T03:17:55.032Z,1021.52
2023-02-02T03:18:55.922Z,1021.57
2023-02-02T03:19:56.797Z,1021.52
2023-02-02T03:20:57.684Z,1021.60
2023-02-02T03:21:58.576Z,1021.58
2023-02-02T03:22:59.454Z,1021.54
2023-02-02T03:24:00.329Z,1021.49
2023-02-02T03:25:01.226Z,1021.49
2023-02-02T03:26:02.104Z,1021.62
2023-02-02T03:27:02.977Z,1021.42
2023-02-02T03:28:03.874Z,1021.55
2023-02-02T03:29:04.755Z,1021.81
2023-02-02T03:30:05.630Z,1021.68
2023-02-02T03:31:06.689Z,1021.64
2023-02-02T03:32:07.073Z,1021.76
2023-02-02T03:33:07.960Z,1021.71
2023-02-02T03:34:08.849Z,1021.76
2023-02-02T03:35:09.720Z,1021.62
2023-02-02T03:36:10.610Z,1021.72
2023-02-02T03:37:11.489Z,1021.74
2023-02-02T03:38:12.369Z,1021.72
2023-02-02T03:39:13.255Z,1021.65
2023-02-02T03:40:14.148Z,1021.71
2023-02-02T03:41:15.027Z,1021.77
2023-02-02T03:42:15.918Z,1021.73
2023-02-02T03:43:16.810Z,1021.72
2023-02-02T03:44:17.690Z,1021.74
2023-02-02T03:45:18.578Z,1021.70
2023-02-02T03:46:19.557Z,1021.72
2023-02-02T03:47:20.412Z,1021.73
2023-02-02T03:48:21.295Z,1021.71
2023-02-02T03:49:22.173Z,1021.59
2023-02-02T03:50:23.051Z,1021.69
2023-02-02T03:51:23.933Z,1021.67
2023-02-02T03:52:24.822Z,1021.72
2023-02-02T03:53:25.700Z,1021.75
2023-02-02T03:54:26.581Z,1021.67
2023-02-02T03:55:27.467Z,1021.70
2023-02-02T03:56:28.350Z,1021.66
2023-02-02T03:57:29.242Z,1021.62
2023-02-02T03:58:30.124Z,1021.64
2023-02-02T03:59:30.998Z,1021.70
2023-02-02T04:00:31.883Z,1021.72
2023-02-02T04:01:32.859Z,1021.61
2023-02-02T04:02:33.740Z,1021.61
2023-02-02T04:03:34.601Z,1021.69
2023-02-02T04:04:35.479Z,1021.71
2023-02-02T04:05:36.353Z,1021.75
2023-02-02T04:06:37.236Z,1021.80
2023-02-02T04:07:38.132Z,1021.63
2023-02-02T04:08:39.007Z,1021.66
2023-02-02T04:09:39.889Z,1021.79
2023-02-02T04:10:40.768Z,1021.69
2023-02-02T04:11:41.658Z,1021.75
2023-02-02T04:12:42.552Z,1021.64
2023-02-02T04:13:43.454Z,1021.84
2023-02-02T04:14:44.319Z,1021.90
2023-02-02T04:15:45.196Z,1021.84
2023-02-02T04:16:46.115Z,1021.72
2023-02-02T04:17:46.981Z,1021.94
2023-02-02T04:18:47.864Z,1021.81
2023-02-02T04:19:48.728Z,1021.73
2023-02-02T04:20:49.616Z,1021.79
2023-02-02T04:21:50.495Z,1021.66
2023-02-02T04:22:51.385Z,1021.86
2023-02-02T04:23:52.273Z,1021.84
2023-02-02T04:24:53.173Z,1021.66
2023-02-02T04:25:54.041Z,1021.81
2023-02-02T04:26:54.974Z,1021.85
2023-02-02T04:27:55.833Z,1021.88
2023-02-02T04:28:56.715Z,1021.90
2023-02-02T04:29:57.589Z,1021.88
2023-02-02T04:30:58.523Z,1021.92
2023-02-02T04:31:59.478Z,1021.94
2023-02-02T04:33:00.321Z,1021.86
2023-02-02T04:34:01.201Z,1021.92
2023-02-02T04:35:02.099Z,1021.91
2023-02-02T04:36:02.977Z,1021.83
2023-02-02T04:37:03.856Z,1021.90
2023-02-02T04:38:05.173Z,1022.00
2023-02-02T04:39:05.523Z,1021.96
2023-02-02T04:40:06.398Z,1021.94
2023-02-02T04:41:07.266Z,1021.91
2023-02-02T04:42:08.154Z,1021.74
2023-02-02T04:43:09.041Z,1021.81
2023-02-02T04:44:09.925Z,1021.87
2023-02-02T04:45:10.811Z,1021.99
2023-02-02T04:46:11.719Z,1021.92
2023-02-02T04:47:12.595Z,1021.99
2023-02-02T04:48:13.464Z,1021.99
2023-02-02T04:49:14.342Z,1021.95
2023-02-02T04:50:15.224Z,1021.94
2023-02-02T04:51:16.099Z,1021.90
2023-02-02T04:52:16.991Z,1021.91
2023-02-02T04:53:17.878Z,1022.01
2023-02-02T04:54:18.801Z,1022.17
2023-02-02T04:55:19.625Z,1022.24
2023-02-02T04:56:20.531Z,1021.93
2023-02-02T04:57:21.401Z,1021.94
2023-02-02T04:58:22.292Z,1022.02
2023-02-02T04:59:23.172Z,1022.03
2023-02-02T05:00:24.058Z,1022.14
2023-02-02T05:01:24.948Z,1022.23
2023-02-02T05:02:25.839Z,1022.19
2023-02-02T05:03:26.705Z,1022.12
2023-02-02T05:04:27.643Z,1022.39
2023-02-02T05:05:28.499Z,1022.24
2023-02-02T05:06:29.389Z,1022.31
2023-02-02T05:07:30.269Z,1022.31
2023-02-02T05:08:31.170Z,1022.28
2023-02-02T05:09:32.063Z,1022.32
2023-02-02T05:10:32.933Z,1022.15
2023-02-02T05:11:33.823Z,1022.19
2023-02-02T05:12:34.703Z,1022.31
2023-02-02T05:13:35.597Z,1022.16
2023-02-02T05:14:36.477Z,1022.15
2023-02-02T05:15:37.353Z,1022.25
2023-02-02T05:16:38.354Z,1022.31
2023-02-02T05:17:39.216Z,1022.23
2023-02-02T05:18:40.088Z,1022.26
2023-02-02T05:19:40.973Z,1022.29
2023-02-02T05:20:41.868Z,1022.09
2023-02-02T05:21:42.748Z,1022.24
2023-02-02T05:22:43.629Z,1022.32
2023-02-02T05:23:44.529Z,1022.21
2023-02-02T05:24:45.406Z,1022.26
2023-02-02T05:25:46.285Z,1022.13
2023-02-02T05:26:47.396Z,1022.13
2023-02-02T05:27:47.811Z,1022.18
2023-02-02T05:28:48.703Z,1022.28
2023-02-02T05:29:49.590Z,1022.20
2023-02-02T05:30:50.484Z,1022.06
2023-02-02T05:31:51.414Z,1022.21
2023-02-02T05:32:52.273Z,1022.36
2023-02-02T05:33:53.138Z,1022.24
2023-02-02T05:34:54.021Z,1022.21
2023-02-02T05:35:54.910Z,1022.25
2023-02-02T05:36:55.800Z,1022.14
2023-02-02T05:37:59.069Z,1022.13
2023-02-02T05:38:57.636Z,1022.21
2023-02-02T05:39:58.533Z,1022.41
2023-02-02T05:40:59.403Z,1022.33
2023-02-02T05:42:00.295Z,1022.15
2023-02-02T05:43:01.184Z,1022.29
2023-02-02T05:44:02.078Z,1022.44
2023-02-02T05:45:02.959Z,1022.38
2023-02-02T05:46:03.929Z,1022.12
2023-02-02T05:47:04.789Z,1022.04
2023-02-02T05:48:05.688Z,1022.12
2023-02-02T05:49:06.563Z,1022.23
2023-02-02T05:50:07.449Z,1022.31
2023-02-02T05:51:08.332Z,1022.24
2023-02-02T05:52:09.217Z,1022.20
2023-02-02T05:53:10.098Z,1022.27
2023-02-02T05:54:10.986Z,1022.13
2023-02-02T05:55:11.871Z,1022.00
2023-02-02T05:56:12.740Z,1021.82
2023-02-02T05:57:13.631Z,1022.04
2023-02-02T05:58:14.509Z,1022.18
2023-02-02T05:59:15.403Z,1021.97
2023-02-02T06:00:16.286Z,1021.89
2023-02-02T06:01:17.163Z,1022.01
2023-02-02T06:02:18.069Z,1022.00
2023-02-02T06:03:19.119Z,1022.07
2023-02-02T06:04:19.475Z,1021.95
2023-02-02T06:05:20.389Z,1021.92
2023-02-02T06:06:21.241Z,1021.99
2023-02-02T06:07:22.138Z,1021.95
2023-02-02T06:08:23.018Z,1022.03
2023-02-02T06:09:23.947Z,1022.10
2023-02-02T06:10:24.801Z,1022.05
2023-02-02T06:11:25.683Z,1022.06
2023-02-02T06:12:26.562Z,1022.13
2023-02-02T06:13:27.453Z,1022.21
2023-02-02T06:14:28.340Z,1022.28
2023-02-02T06:15:29.313Z,1022.28
2023-02-02T06:16:30.156Z,1022.30
2023-02-02T06:17:31.040Z,1022.38
2023-02-02T06:18:31.943Z,1022.43
2023-02-02T06:19:32.816Z,1022.41
2023-02-02T06:20:33.695Z,1022.47
2023-02-02T06:21:34.586Z,1022.48
2023-02-02T06:22:35.485Z,1022.57
2023-02-02T06:23:36.378Z,1022.30
2023-02-02T06:24:37.255Z,1022.17
2023-02-02T06:25:38.134Z,1022.27
2023-02-02T06:26:39.072Z,1022.34
2023-02-02T06:27:39.909Z,1022.46
2023-02-02T06:28:40.799Z,1022.33
2023-02-02T06:29:41.693Z,1022.29
2023-02-02T06:30:44.212Z,1022.36
2023-02-02T06:31:43.197Z,1022.54
2023-02-02T06:32:44.108Z,1022.48
2023-02-02T06:33:45.006Z,1022.53
2023-02-02T06:34:45.873Z,1022.63
2023-02-02T06:35:46.715Z,1022.51
2023-02-02T06:36:47.547Z,1022.48
2023-02-02T06:37:48.371Z,1022.43
2023-02-02T06:38:49.204Z,1022.40
2023-02-02T06:39:50.041Z,1022.47
2023-02-02T06:40:50.863Z,1022.41
2023-02-02T06:41:51.692Z,1022.35
2023-02-02T06:42:52.593Z,1022.35
2023-02-02T06:43:53.485Z,1022.32
2023-02-02T06:44:54.310Z,1022.33
2023-02-02T06:45:55.169Z,1022.36
2023-02-02T06:46:55.955Z,1022.42
2023-02-02T06:47:56.779Z,1022.42
2023-02-02T06:48:57.625Z,1022.28
2023-02-02T06:49:58.440Z,1022.27
2023-02-02T06:50:59.296Z,1022.18
2023-02-02T06:52:00.117Z,1022.22
2023-02-02T06:53:00.936Z,1022.23
2023-02-02T06:54:02.772Z,1022.29
2023-02-02T06:55:02.552Z,1022.31
2023-02-02T06:56:03.391Z,1022.48
2023-02-02T06:57:04.210Z,1022.52
2023-02-02T06:58:05.166Z,1022.54
2023-02-02T06:59:05.930Z,1022.57
2023-02-02T07:00:06.771Z,1022.53
2023-02-02T07:01:07.648Z,1022.49
2023-02-02T07:02:08.430Z,1022.56
2023-02-02T07:03:09.264Z,1022.65
2023-02-02T07:04:10.109Z,1022.70
2023-02-02T07:05:10.937Z,1022.61
2023-02-02T07:06:11.764Z,1022.63
2023-02-02T07:07:12.585Z,1022.58
2023-02-02T07:08:13.416Z,1022.75
2023-02-02T07:09:14.234Z,1022.78
2023-02-02T07:11:14.363Z,1022.70
2023-02-02T07:11:16.893Z,1022.67
2023-02-02T07:12:16.731Z,1022.77
2023-02-02T07:13:17.572Z,1022.80
2023-02-02T07:14:18.398Z,1022.79
2023-02-02T07:15:19.256Z,1022.77
2023-02-02T07:16:20.145Z,1022.78
2023-02-02T07:17:20.944Z,1022.86
2023-02-02T07:18:21.770Z,1022.86
2023-02-02T07:19:22.620Z,1022.79
2023-02-02T07:20:23.444Z,1022.79
2023-02-02T07:21:24.275Z,1022.81
2023-02-02T07:22:25.107Z,1022.74
2023-02-02T07:23:25.943Z,1022.80
2023-02-02T07:24:26.763Z,1022.92
2023-02-02T07:25:27.743Z,1023.02
2023-02-02T07:26:28.610Z,1022.96
2023-02-02T07:27:29.402Z,1022.83
2023-02-02T07:28:30.231Z,1022.95
2023-02-02T07:29:31.059Z,1022.90
2023-02-02T07:30:32.004Z,1022.99
2023-02-02T07:31:35.858Z,1023.11
2023-02-02T07:32:33.712Z,1022.98
2023-02-02T07:33:34.527Z,1022.94
2023-02-02T07:34:35.376Z,1023.08
2023-02-02T07:35:36.201Z,1023.11
2023-02-02T07:36:37.030Z,1023.04
2023-02-02T07:37:39.994Z,1022.91
2023-02-02T07:38:38.416Z,1022.93
2023-02-02T07:39:39.251Z,1023.05
2023-02-02T07:40:40.097Z,1023.24
2023-02-02T07:41:40.909Z,1023.11
2023-02-02T07:42:41.740Z,1022.94
2023-02-02T07:43:42.594Z,1022.94
2023-02-02T07:44:43.419Z,1022.93
2023-02-02T07:45:44.235Z,1022.91
2023-02-02T07:46:45.100Z,1023.03
2023-02-02T07:47:45.889Z,1023.11
2023-02-02T07:48:46.392Z,1023.13
2023-02-02T07:49:47.293Z,1022.96
2023-02-02T07:50:48.159Z,1022.92
2023-02-02T07:51:48.969Z,1022.97
2023-02-02T07:52:49.795Z,1022.92
2023-02-02T07:53:50.635Z,1022.93
2023-02-02T07:54:51.694Z,1023.06
2023-02-02T07:55:52.063Z,1023.12
2023-02-02T07:56:52.909Z,1023.21
2023-02-02T07:57:53.720Z,1023.12
2023-02-02T07:58:54.558Z,1023.04
2023-02-02T07:59:55.392Z,1022.97
2023-02-02T08:00:56.273Z,1023.15
2023-02-02T08:01:57.193Z,1023.17
2023-02-02T08:02:58.032Z,1023.18
2023-02-02T08:03:58.832Z,1023.12
2023-02-02T08:04:59.664Z,1023.13
2023-02-02T08:06:00.492Z,1023.00
2023-02-02T08:07:01.318Z,1022.85
2023-02-02T08:08:02.153Z,1023.00
2023-02-02T08:09:02.988Z,1023.00
2023-02-02T08:10:03.837Z,1023.04
2023-02-02T08:11:04.680Z,1023.08
2023-02-02T08:12:05.498Z,1023.11
2023-02-02T08:13:06.344Z,1022.97
2023-02-02T08:14:07.184Z,1023.04
2023-02-02T08:15:07.993Z,1022.99
2023-02-02T08:16:09.026Z,1022.92
2023-02-02T08:17:09.374Z,1022.96
2023-02-02T08:18:10.199Z,1022.96
2023-02-02T08:19:11.036Z,1022.98
2023-02-02T08:20:11.877Z,1023.06
2023-02-02T08:21:12.726Z,1023.17
2023-02-02T08:22:13.543Z,1023.12
2023-02-02T08:23:14.368Z,1023.07
2023-02-02T08:24:15.189Z,1023.18
2023-02-02T08:25:16.033Z,1023.15
2023-02-02T08:26:17.054Z,1022.94
2023-02-02T08:27:17.396Z,1023.06
2023-02-02T08:28:18.230Z,1023.12
2023-02-02T08:29:19.061Z,1023.02
2023-02-02T08:30:19.944Z,1022.82
2023-02-02T08:31:20.740Z,1022.95
2023-02-02T08:32:21.560Z,1023.10
2023-02-02T08:33:22.387Z,1023.09
2023-02-02T08:34:23.217Z,1022.94
2023-02-02T08:35:24.438Z,1023.09
2023-02-02T08:36:24.903Z,1022.99
2023-02-02T08:37:25.729Z,1022.70
2023-02-02T08:38:26.561Z,1022.89
2023-02-02T08:39:27.385Z,1023.03
2023-02-02T08:40:28.258Z,1022.93
2023-02-02T08:41:29.124Z,1022.99
2023-02-02T08:42:29.953Z,1023.06
2023-02-02T08:43:30.785Z,1023.10
2023-02-02T08:46:00.302Z,1023.07
2023-02-02T08:46:02.591Z,1023.07
2023-02-02T08:46:34.187Z,1023.17
2023-02-02T08:47:33.995Z,1023.28
2023-02-02T08:48:34.698Z,1023.19
2023-02-02T08:49:35.196Z,1023.33
2023-02-02T08:50:36.044Z,1023.37
2023-02-02T08:51:36.865Z,1023.22
2023-02-02T08:52:37.696Z,1023.29
2023-02-02T08:53:38.526Z,1023.26
2023-02-02T08:54:39.345Z,1023.38
2023-02-02T08:55:40.169Z,1023.32
2023-02-02T08:56:41.015Z,1023.15
2023-02-02T08:57:41.846Z,1023.34
2023-02-02T08:58:42.668Z,1023.45
2023-02-02T08:59:43.500Z,1023.48
2023-02-02T09:00:44.390Z,1023.42
2023-02-02T09:01:45.172Z,1023.37
2023-02-02T09:02:45.993Z,1023.44
2023-02-02T09:03:46.832Z,1023.41
2023-02-02T09:04:47.661Z,1023.50
2023-02-02T09:05:48.512Z,1023.60
2023-02-02T09:06:49.319Z,1023.60
2023-02-02T09:07:50.154Z,1023.39
2023-02-02T09:08:51.030Z,1023.30
2023-02-02T09:09:51.818Z,1023.37
2023-02-02T09:10:52.676Z,1023.44
2023-02-02T09:11:53.484Z,1023.63
2023-02-02T09:12:54.320Z,1023.49
2023-02-02T09:13:55.146Z,1023.57
2023-02-02T09:14:55.980Z,1023.53
2023-02-02T09:15:56.806Z,1023.50
2023-02-02T09:16:57.788Z,1023.54
2023-02-02T09:17:58.583Z,1023.59
2023-02-02T09:18:59.417Z,1023.61
2023-02-02T09:20:00.255Z,1023.72
2023-02-02T09:21:01.144Z,1023.67
2023-02-02T09:22:01.915Z,1023.77
2023-02-02T09:23:02.742Z,1023.72
2023-02-02T09:24:03.572Z,1023.65
2023-02-02T09:25:04.416Z,1023.63
2023-02-02T09:26:05.242Z,1023.54
2023-02-02T09:27:06.100Z,1023.68
2023-02-02T09:28:06.919Z,1023.75
2023-02-02T09:29:07.757Z,1023.78
2023-02-02T09:30:08.576Z,1023.86
2023-02-02T09:31:09.449Z,1023.82
2023-02-02T09:32:10.361Z,1023.73
2023-02-02T09:33:11.180Z,1023.76
2023-02-02T09:34:12.012Z,1023.83
2023-02-02T09:35:12.987Z,1023.83
2023-02-02T09:36:13.777Z,1023.75
2023-02-02T09:37:14.597Z,1023.80
2023-02-02T09:38:15.434Z,1023.89
2023-02-02T09:39:16.738Z,1023.77
2023-02-02T09:40:17.094Z,1023.77
2023-02-02T09:41:17.904Z,1023.80
2023-02-02T09:42:18.749Z,1023.86
2023-02-02T09:43:19.601Z,1023.90
2023-02-02T09:44:20.439Z,1023.91
2023-02-02T09:45:21.262Z,1023.87
2023-02-02T09:46:22.107Z,1023.87
2023-02-02T09:47:22.767Z,1023.80
2023-02-02T09:48:23.565Z,1023.88
2023-02-02T09:49:24.398Z,1023.84
2023-02-02T09:50:25.221Z,1023.85
2023-02-02T09:51:26.073Z,1023.91
2023-02-02T09:52:26.914Z,1023.94
2023-02-02T09:53:27.727Z,1023.87
2023-02-02T09:54:28.553Z,1023.91
2023-02-02T09:55:29.394Z,1024.00
2023-02-02T09:56:30.227Z,1024.02
2023-02-02T09:57:31.072Z,1023.96
2023-02-02T09:58:31.894Z,1023.97
2023-02-02T09:59:32.723Z,1023.99
2023-02-02T10:00:33.554Z,1023.97
2023-02-02T10:01:34.407Z,1023.92
2023-02-02T10:02:35.220Z,1023.99
2023-02-02T10:03:36.105Z,1023.93
2023-02-02T10:04:36.903Z,1023.90
2023-02-02T10:05:37.720Z,1024.04
2023-02-02T10:06:38.602Z,1024.03
2023-02-02T10:07:39.422Z,1024.09
2023-02-02T10:08:40.256Z,1024.01
2023-02-02T10:09:41.084Z,1023.99
2023-02-02T10:10:41.911Z,1024.05
2023-02-02T10:11:42.741Z,1024.03
2023-02-02T10:12:43.566Z,1023.99
2023-02-02T10:13:44.405Z,1024.06
2023-02-02T10:14:45.256Z,1024.11
2023-02-02T10:15:46.255Z,1024.09
2023-02-02T10:16:47.041Z,1024.00
2023-02-02T10:17:47.876Z,1024.00
2023-02-02T10:18:48.718Z,1024.05
2023-02-02T10:19:49.541Z,1024.11
2023-02-02T10:20:50.510Z,1024.05
2023-02-02T10:21:51.288Z,1023.98
2023-02-02T10:22:52.098Z,1024.02
2023-02-02T10:23:52.941Z,1023.98
2023-02-02T10:24:53.764Z,1023.99
2023-02-02T10:25:54.588Z,1023.88
2023-02-02T10:26:55.460Z,1023.92
2023-02-02T10:27:56.257Z,1024.09
2023-02-02T10:28:57.181Z,1024.13
2023-02-02T10:29:58.011Z,1024.08
2023-02-02T10:30:58.887Z,1024.09
2023-02-02T10:31:59.748Z,1024.14
2023-02-02T10:33:01.540Z,1024.13
2023-02-02T10:34:01.379Z,1024.05
2023-02-02T10:35:13.192Z,1024.05
2023-02-02T10:36:03.923Z,1024.12
2023-02-02T10:37:03.768Z,1024.12
2023-02-02T10:38:04.585Z,1024.09
2023-02-02T10:39:05.420Z,1024.06
2023-02-02T10:40:06.370Z,1024.09
2023-02-02T10:41:07.184Z,1024.15
2023-02-02T10:42:08.007Z,1024.25
2023-02-02T10:43:08.852Z,1024.28
2023-02-02T10:44:09.699Z,1024.17
2023-02-02T10:45:10.545Z,1024.06
2023-02-02T10:46:11.398Z,1024.12
2023-02-02T10:47:12.211Z,1024.25
2023-02-02T10:48:13.069Z,1024.31
2023-02-02T10:49:13.897Z,1024.18
2023-02-02T10:50:14.730Z,1024.11
2023-02-02T10:51:15.556Z,1024.13
2023-02-02T10:52:16.400Z,1024.18
2023-02-02T10:53:17.238Z,1024.12
2023-02-02T10:54:18.084Z,1024.13
2023-02-02T10:55:18.899Z,1024.17
2023-02-02T10:56:19.719Z,1024.29
2023-02-02T10:57:20.544Z,1024.27
2023-02-02T10:58:21.391Z,1024.09
2023-02-02T10:59:22.219Z,1023.89
2023-02-02T11:00:23.540Z,1024.04
2023-02-02T11:01:24.069Z,1024.11
2023-02-02T11:02:24.883Z,1024.13
2023-02-02T11:03:25.734Z,1024.12
2023-02-02T11:04:26.568Z,1024.22
2023-02-02T11:05:27.392Z,1024.14
2023-02-02T11:06:28.221Z,1024.11
2023-02-02T11:07:29.063Z,1024.10
2023-02-02T11:08:29.890Z,1024.11
2023-02-02T11:09:30.737Z,1024.02
2023-02-02T11:10:31.540Z,1024.18
2023-02-02T11:11:32.342Z,1024.23
2023-02-02T11:12:33.171Z,1024.09
2023-02-02T11:13:34.087Z,1024.13
2023-02-02T11:14:41.866Z,1024.18
2023-02-02T11:15:36.693Z,1024.08
2023-02-02T11:16:43.179Z,1024.05
2023-02-02T11:17:38.183Z,1024.11
2023-02-02T11:18:38.017Z,1024.11
2023-02-02T11:19:38.846Z,1024.28
2023-02-02T11:20:39.680Z,1024.18
2023-02-02T11:21:40.531Z,1024.11
2023-02-02T11:22:41.360Z,1024.12
2023-02-02T11:23:42.180Z,1024.10
2023-02-02T11:24:43.031Z,1024.12
2023-02-02T11:25:43.848Z,1024.23
2023-02-02T11:26:44.686Z,1024.21
2023-02-02T11:27:45.545Z,1024.10
2023-02-02T11:28:46.383Z,1024.08
2023-02-02T11:29:47.209Z,1024.13
2023-02-02T11:30:48.122Z,1024.14
2023-02-02T11:31:49.123Z,1024.16
2023-02-02T11:32:49.920Z,1024.19
2023-02-02T11:33:50.804Z,1024.32
2023-02-02T11:34:51.581Z,1024.23
2023-02-02T11:35:52.409Z,1024.08
2023-02-02T11:36:53.239Z,1024.10
2023-02-02T11:37:54.090Z,1024.03
2023-02-02T11:38:54.912Z,1023.95
2023-02-02T11:39:55.739Z,1023.96
2023-02-02T11:40:56.570Z,1024.04
2023-02-02T11:41:57.403Z,1024.06
2023-02-02T11:42:58.232Z,1023.99
2023-02-02T11:43:59.162Z,1023.98
2023-02-02T11:44:59.996Z,1023.98
2023-02-02T11:46:02.877Z,1023.98
2023-02-02T11:47:01.485Z,1024.03
2023-02-02T11:48:02.303Z,1024.03
2023-02-02T11:49:03.148Z,1024.01
2023-02-02T11:50:04.037Z,1024.12
2023-02-02T11:51:04.630Z,1024.08
2023-02-02T11:52:05.412Z,1024.04
2023-02-02T11:53:06.269Z,1024.06
2023-02-02T11:54:07.100Z,1024.11
2023-02-02T11:55:07.909Z,1024.07
2023-02-02T11:56:08.749Z,1023.97
2023-02-02T11:57:09.570Z,1024.04
2023-02-02T11:58:11.997Z,1024.09
2023-02-02T11:59:10.967Z,1024.04
2023-02-02T12:00:11.893Z,1024.03
2023-02-02T12:01:12.696Z,1024.04
2023-02-02T12:02:13.571Z,1024.07
2023-02-02T12:03:14.359Z,1024.11
2023-02-02T12:04:15.230Z,1024.04
2023-02-02T12:05:16.049Z,1023.99
2023-02-02T12:06:16.855Z,1024.03
2023-02-02T12:07:17.690Z,1024.01
2023-02-02T12:08:18.552Z,1024.08
2023-02-02T12:09:19.408Z,1024.04
2023-02-02T12:10:20.224Z,1023.95
2023-02-02T12:11:21.034Z,1024.00
2023-02-02T12:12:21.860Z,1024.01
2023-02-02T12:13:22.693Z,1024.04
2023-02-02T12:14:23.536Z,1024.09
2023-02-02T12:15:24.364Z,1024.02